createdAt,value
2023-01-20T07:35:41.134Z,-15.18
2023-01-20T07:40:44.524Z,-15.12
2023-01-20T07:45:48.066Z,-15.23
2023-01-20T07:51:01.960Z,-15.10
2023-01-20T07:56:05.949Z,-15.09
2023-01-20T08:01:10.309Z,-15.28
2023-01-20T08:06:16.010Z,-15.16
2023-01-20T08:11:20.244Z,-15.13
2023-01-20T08:16:23.726Z,-15.10
2023-01-20T08:21:29.248Z,-15.19
2023-01-20T08:26:32.756Z,-15.21
2023-01-20T08:31:36.578Z,-15.12
2023-01-20T08:36:42.148Z,-15.02
2023-01-20T08:41:46.282Z,-14.99
2023-01-20T08:46:52.611Z,-15.05
2023-01-20T08:51:57.464Z,-15.10
2023-01-20T08:57:00.903Z,-15.46
2023-01-20T09:02:06.420Z,-15.35
2023-01-20T09:07:13.634Z,-15.12
2023-01-20T09:12:17.288Z,-15.01
2023-01-20T09:17:25.167Z,-14.96
2023-01-20T09:22:34.000Z,-14.95
2023-01-20T09:27:37.480Z,-15.39
2023-01-20T09:32:40.951Z,-15.12
2023-01-20T09:38:03.580Z,-15.25
2023-01-20T09:43:28.917Z,-15.04
2023-01-20T09:48:54.726Z,-14.91
2023-01-20T09:54:08.105Z,-14.85
2023-01-20T09:59:14.585Z,-14.76
2023-01-20T10:04:21.570Z,-14.67
2023-01-20T10:09:42.228Z,-14.69
2023-01-20T10:14:46.994Z,-14.60
2023-01-20T10:19:52.893Z,-14.57
2023-01-20T10:25:05.619Z,-14.69
2023-01-20T10:30:10.715Z,-14.60
2023-01-20T10:35:17.404Z,-14.74
2023-01-20T10:40:31.610Z,-15.26
2023-01-20T10:45:49.430Z,-14.65
2023-01-20T10:50:59.737Z,-14.43
2023-01-20T10:56:17.076Z,-14.15
2023-01-20T11:01:21.538Z,-14.25
2023-01-20T11:06:26.833Z,-14.52
2023-01-20T11:11:34.330Z,-14.41
2023-01-20T11:16:40.470Z,-14.19
2023-01-20T11:22:11.198Z,-14.22
2023-01-20T11:27:18.041Z,-14.25
2023-01-20T11:32:32.463Z,-14.36
2023-01-20T11:37:37.163Z,-14.29
2023-01-20T11:42:46.139Z,-14.21
2023-01-20T11:48:00.386Z,-14.37
2023-01-20T11:53:32.160Z,-14.29
2023-01-20T11:58:50.354Z,-14.49
2023-01-20T12:04:01.195Z,-14.14
2023-01-20T12:09:13.000Z,-13.91
2023-01-20T12:14:24.902Z,-13.88
2023-01-20T12:19:33.435Z,-14.17
2023-01-20T12:25:03.008Z,-13.88
2023-01-20T12:30:16.610Z,-14.08
2023-01-20T12:35:22.168Z,-14.09
2023-01-20T12:40:31.152Z,-14.09
2023-01-20T12:45:46.403Z,-13.96
2023-01-20T12:50:57.371Z,-13.78
2023-01-20T12:56:10.843Z,-13.96
2023-01-20T13:01:28.968Z,-13.85
2023-01-20T13:06:50.629Z,-13.80
2023-01-20T13:12:02.089Z,-13.64
2023-01-20T13:17:11.347Z,-13.68
2023-01-20T13:22:17.499Z,-13.70
2023-01-20T13:27:24.697Z,-13.75
2023-01-20T13:32:34.643Z,-13.80
2023-01-20T13:37:39.534Z,-13.81
2023-01-20T13:42:51.437Z,-13.65
2023-01-20T13:48:03.935Z,-13.68
2023-01-20T13:53:14.802Z,-14.08
2023-01-20T13:58:19.327Z,-14.05
2023-01-20T14:03:26.078Z,-14.02
2023-01-20T14:08:30.621Z,-14.02
2023-01-20T14:13:34.307Z,-14.14
2023-01-20T14:18:41.848Z,-14.11
2023-01-20T14:23:47.159Z,-14.00
2023-01-20T14:28:52.006Z,-14.14
2023-01-20T14:34:04.163Z,-14.76
2023-01-20T14:39:14.353Z,-14.66
2023-01-20T14:44:20.244Z,-14.70
2023-01-20T14:49:27.956Z,-14.41
2023-01-20T14:54:35.639Z,-14.52
2023-01-20T14:59:39.645Z,-14.46
2023-01-20T15:05:03.634Z,-14.55
2023-01-20T15:10:19.845Z,-15.50
2023-01-20T15:15:29.638Z,-14.35
2023-01-20T15:21:15.485Z,-14.34
2023-01-20T15:26:48.543Z,-14.43
2023-01-20T15:32:33.626Z,-14.74
2023-01-20T15:37:50.480Z,-14.59
2023-01-20T15:42:55.012Z,-14.71
2023-01-20T15:47:59.003Z,-14.66
2023-01-20T15:53:06.396Z,-14.70
2023-01-20T15:58:21.343Z,-14.58
2023-01-20T16:03:26.310Z,-14.54
2023-01-20T16:08:35.920Z,-14.53
2023-01-20T16:13:40.099Z,-14.80
2023-01-20T16:18:44.134Z,-15.36
2023-01-20T16:23:49.123Z,-14.93
2023-01-20T16:28:53.452Z,-14.70
2023-01-20T16:33:57.369Z,-14.97
2023-01-20T16:39:04.849Z,-14.97
2023-01-20T16:44:08.621Z,-15.46
2023-01-20T16:49:12.322Z,-15.27
2023-01-20T16:54:23.391Z,-15.13
2023-01-20T16:59:27.265Z,-15.09
2023-01-20T17:04:31.210Z,-15.20
2023-01-20T17:09:36.322Z,-15.30
2023-01-20T17:14:46.697Z,-15.33
2023-01-20T17:19:54.704Z,-15.35
2023-01-20T17:25:06.968Z,-15.49
2023-01-20T17:30:11.362Z,-15.41
2023-01-20T17:35:15.239Z,-15.42
2023-01-20T17:40:22.996Z,-15.65
2023-01-20T17:45:28.617Z,-15.65
2023-01-20T17:50:32.608Z,-15.85
2023-01-20T17:55:37.740Z,-15.73
2023-01-20T18:00:55.458Z,-16.05
2023-01-20T18:05:59.008Z,-16.07
2023-01-20T18:11:05.040Z,-15.95
2023-01-20T18:16:10.978Z,-15.89
2023-01-20T18:21:15.917Z,-15.77
2023-01-20T18:26:22.356Z,-16.18
2023-01-20T18:31:26.831Z,-16.22
2023-01-20T18:36:31.576Z,-16.19
2023-01-20T18:41:37.947Z,-16.06
2023-01-20T18:46:41.886Z,-16.12
2023-01-20T18:51:45.735Z,-16.24
2023-01-20T18:56:50.916Z,-16.21
2023-01-20T19:01:59.336Z,-16.42
2023-01-20T19:07:03.244Z,-16.52
2023-01-20T19:12:09.261Z,-16.23
2023-01-20T19:17:15.669Z,-16.39
2023-01-20T19:22:19.763Z,-16.35
2023-01-20T19:27:26.590Z,-16.29
2023-01-20T19:32:30.671Z,-16.44
2023-01-20T19:37:35.026Z,-16.45
2023-01-20T19:42:40.212Z,-16.63
2023-01-20T19:47:44.271Z,-16.61
2023-01-20T19:52:47.777Z,-16.62
2023-01-20T19:57:53.520Z,-16.63
2023-01-20T20:02:57.277Z,-16.46
2023-01-20T20:08:01.351Z,-16.42
2023-01-20T20:13:09.575Z,-16.69
2023-01-20T20:18:13.180Z,-16.83
2023-01-20T20:23:21.286Z,-16.83
2023-01-20T20:28:27.336Z,-16.96
2023-01-20T20:33:30.989Z,-16.96
2023-01-20T20:38:36.700Z,-16.98
2023-01-20T20:43:41.669Z,-16.99
2023-01-20T20:48:45.339Z,-17.04
2023-01-20T20:53:48.884Z,-17.17
2023-01-20T20:59:01.447Z,-17.13
2023-01-20T21:04:06.704Z,-17.16
2023-01-20T21:09:10.889Z,-17.10
2023-01-20T21:14:15.977Z,-17.13
2023-01-20T21:19:19.799Z,-17.14
2023-01-20T21:24:29.200Z,-17.23
2023-01-20T21:29:34.395Z,-17.21
2023-01-20T21:34:38.126Z,-17.12
2023-01-20T21:39:41.728Z,-17.37
2023-01-20T21:44:46.944Z,-17.17
2023-01-20T21:50:08.013Z,-17.21
2023-01-20T21:55:16.480Z,-17.49
2023-01-20T22:00:22.360Z,-17.44
2023-01-20T22:05:26.447Z,-17.56
2023-01-20T22:10:30.204Z,-17.53
2023-01-20T22:15:35.913Z,-17.59
2023-01-20T22:20:39.900Z,-17.60
2023-01-20T22:25:43.702Z,-17.55
